sensor_id;sensor_type;location;lat;lon;timestamp;temperature;humidity
8888;DHT22;4480;52.370;9.748;2022-09-02T00:23:07;14.50;74.70
8888;DHT22;4480;52.370;9.748;2022-09-02T00:25:36;14.00;83.70
8888;DHT22;4480;52.370;9.748;2022-09-02T00:28:05;14.00;83.20
8888;DHT22;4480;52.370;9.748;2022-09-02T00:30:32;14.00;83.80
8888;DHT22;4480;52.370;9.748;2022-09-02T00:33:01;13.90;84.20
8888;DHT22;4480;52.370;9.748;2022-09-02T00:35:28;13.90;84.90
8888;DHT22;4480;52.370;9.748;2022-09-02T00:37:55;13.90;85.20
8888;DHT22;4480;52.370;9.748;2022-09-02T00:40:23;13.80;85.80
8888;DHT22;4480;52.370;9.748;2022-09-02T00:42:52;13.80;86.20
8888;DHT22;4480;52.370;9.748;2022-09-02T00:45:20;13.80;86.70
8888;DHT22;4480;52.370;9.748;2022-09-02T00:47:47;13.70;87.00
8888;DHT22;4480;52.370;9.748;2022-09-02T00:50:18;13.70;87.60
8888;DHT22;4480;52.370;9.748;2022-09-02T00:52:50;13.70;88.20
8888;DHT22;4480;52.370;9.748;2022-09-02T00:55:21;13.60;88.80
8888;DHT22;4480;52.370;9.748;2022-09-02T00:57:52;13.60;89.10
8888;DHT22;4480;52.370;9.748;2022-09-02T01:00:23;13.60;89.60
8888;DHT22;4480;52.370;9.748;2022-09-02T01:02:54;13.60;90.00
8888;DHT22;4480;52.370;9.748;2022-09-02T01:05:24;13.60;90.00
8888;DHT22;4480;52.370;9.748;2022-09-02T01:07:51;13.60;90.20
8888;DHT22;4480;52.370;9.748;2022-09-02T01:10:22;13.50;90.40
8888;DHT22;4480;52.370;9.748;2022-09-02T05:19:22;12.00;98.90
8888;DHT22;4480;52.370;9.748;2022-09-02T05:21:50;12.70;99.50
8888;DHT22;4480;52.370;9.748;2022-09-02T05:24:20;12.70;99.40
8888;DHT22;4480;52.370;9.748;2022-09-02T05:26:48;12.60;99.20
8888;DHT22;4480;52.370;9.748;2022-09-02T05:29:16;12.60;99.10
8888;DHT22;4480;52.370;9.748;2022-09-02T05:31:46;12.50;99.10
8888;DHT22;4480;52.370;9.748;2022-09-02T05:34:14;12.50;99.20
8888;DHT22;4480;52.370;9.748;2022-09-02T05:36:43;12.50;99.20
8888;DHT22;4480;52.370;9.748;2022-09-02T05:39:11;12.50;99.20
8888;DHT22;4480;52.370;9.748;2022-09-02T05:41:39;12.60;99.00
8888;DHT22;4480;52.370;9.748;2022-09-02T05:44:07;12.60;98.90
8888;DHT22;4480;52.370;9.748;2022-09-02T05:46:35;12.60;99.10
8888;DHT22;4480;52.370;9.748;2022-09-02T05:49:03;12.60;98.80
8888;DHT22;4480;52.370;9.748;2022-09-02T05:51:39;12.70;98.80
8888;DHT22;4480;52.370;9.748;2022-09-02T05:54:10;12.70;98.60
8888;DHT22;4480;52.370;9.748;2022-09-02T05:56:38;12.80;98.50
8888;DHT22;4480;52.370;9.748;2022-09-02T05:59:06;12.80;98.40
8888;DHT22;4480;52.370;9.748;2022-09-02T06:01:35;12.80;98.30
8888;DHT22;4480;52.370;9.748;2022-09-02T06:04:04;12.90;98.20
8888;DHT22;4480;52.370;9.748;2022-09-02T06:06:32;13.00;98.00
8888;DHT22;4480;52.370;9.748;2022-09-02T06:09:00;13.10;97.90
8888;DHT22;4480;52.370;9.748;2022-09-02T06:11:30;13.10;97.60
8888;DHT22;4480;52.370;9.748;2022-09-02T06:13:57;13.20;97.50
8888;DHT22;4480;52.370;9.748;2022-09-02T06:16:24;13.30;97.30
8888;DHT22;4480;52.370;9.748;2022-09-02T06:18:52;13.30;97.10
8888;DHT22;4480;52.370;9.748;2022-09-02T06:21:19;13.40;96.90
8888;DHT22;4480;52.370;9.748;2022-09-02T06:23:47;13.50;96.80
8888;DHT22;4480;52.370;9.748;2022-09-02T06:26:16;13.60;96.60
8888;DHT22;4480;52.370;9.748;2022-09-02T06:28:45;13.70;96.40
8888;DHT22;4480;52.370;9.748;2022-09-02T06:31:15;13.80;96.10
8888;DHT22;4480;52.370;9.748;2022-09-02T06:33:44;13.90;95.90
8888;DHT22;4480;52.370;9.748;2022-09-02T06:36:13;14.00;95.60
8888;DHT22;4480;52.370;9.748;2022-09-02T06:38:43;14.10;95.30
8888;DHT22;4480;52.370;9.748;2022-09-02T06:41:11;14.20;95.00
8888;DHT22;4480;52.370;9.748;2022-09-02T06:43:39;14.40;94.70
8888;DHT22;4480;52.370;9.748;2022-09-02T06:46:13;14.50;94.40
8888;DHT22;4480;52.370;9.748;2022-09-02T06:48:40;14.50;94.10
8888;DHT22;4480;52.370;9.748;2022-09-02T06:51:07;14.60;93.80
8888;DHT22;4480;52.370;9.748;2022-09-02T06:53:34;14.80;93.50
8888;DHT22;4480;52.370;9.748;2022-09-02T06:56:06;14.80;93.20
8888;DHT22;4480;52.370;9.748;2022-09-02T06:58:35;14.90;92.90
8888;DHT22;4480;52.370;9.748;2022-09-02T07:01:03;15.00;92.60
8888;DHT22;4480;52.370;9.748;2022-09-02T07:03:32;15.20;92.30
8888;DHT22;4480;52.370;9.748;2022-09-02T07:06:16;15.30;91.90
8888;DHT22;4480;52.370;9.748;2022-09-02T07:08:43;15.50;91.40
8888;DHT22;4480;52.370;9.748;2022-09-02T07:11:15;15.60;91.10
8888;DHT22;4480;52.370;9.748;2022-09-02T07:13:43;15.70;90.70
8888;DHT22;4480;52.370;9.748;2022-09-02T07:16:11;15.80;90.20
8888;DHT22;4480;52.370;9.748;2022-09-02T07:18:40;15.90;89.90
8888;DHT22;4480;52.370;9.748;2022-09-02T07:21:09;16.00;89.30
8888;DHT22;4480;52.370;9.748;2022-09-02T07:23:37;16.20;88.70
8888;DHT22;4480;52.370;9.748;2022-09-02T07:26:11;16.30;88.60
8888;DHT22;4480;52.370;9.748;2022-09-02T07:28:38;16.50;87.20
8888;DHT22;4480;52.370;9.748;2022-09-02T07:31:07;16.60;86.10
8888;DHT22;4480;52.370;9.748;2022-09-02T07:33:35;16.60;85.30
8888;DHT22;4480;52.370;9.748;2022-09-02T07:36:05;16.70;84.70
8888;DHT22;4480;52.370;9.748;2022-09-02T07:38:33;16.70;84.10
8888;DHT22;4480;52.370;9.748;2022-09-02T07:41:00;16.70;83.70
8888;DHT22;4480;52.370;9.748;2022-09-02T07:43:28;16.80;83.30
8888;DHT22;4480;52.370;9.748;2022-09-02T07:45:56;16.80;82.80
8888;DHT22;4480;52.370;9.748;2022-09-02T07:48:27;16.90;82.40
8888;DHT22;4480;52.370;9.748;2022-09-02T07:50:55;17.10;81.80
8888;DHT22;4480;52.370;9.748;2022-09-02T07:53:24;17.10;80.90
8888;DHT22;4480;52.370;9.748;2022-09-02T07:55:51;17.20;80.30
8888;DHT22;4480;52.370;9.748;2022-09-02T07:58:19;17.20;79.70
8888;DHT22;4480;52.370;9.748;2022-09-02T08:00:47;17.30;79.10
8888;DHT22;4480;52.370;9.748;2022-09-02T08:03:15;17.40;78.70
8888;DHT22;4480;52.370;9.748;2022-09-02T08:05:43;17.50;78.10
8888;DHT22;4480;52.370;9.748;2022-09-02T08:08:12;17.60;77.20
8888;DHT22;4480;52.370;9.748;2022-09-02T08:10:41;17.60;76.50
8888;DHT22;4480;52.370;9.748;2022-09-02T08:13:09;17.70;75.90
8888;DHT22;4480;52.370;9.748;2022-09-02T08:15:36;17.80;75.20
8888;DHT22;4480;52.370;9.748;2022-09-02T08:18:04;17.90;74.60
8888;DHT22;4480;52.370;9.748;2022-09-02T08:20:32;18.10;74.10
8888;DHT22;4480;52.370;9.748;2022-09-02T08:22:59;18.20;73.40
8888;DHT22;4480;52.370;9.748;2022-09-02T08:25:27;18.40;72.60
8888;DHT22;4480;52.370;9.748;2022-09-02T08:27:56;18.50;71.60
8888;DHT22;4480;52.370;9.748;2022-09-02T08:30:23;18.60;70.50
8888;DHT22;4480;52.370;9.748;2022-09-02T08:32:51;18.70;69.60
8888;DHT22;4480;52.370;9.748;2022-09-02T08:35:18;18.70;69.10
8888;DHT22;4480;52.370;9.748;2022-09-02T08:37:46;18.80;68.60
8888;DHT22;4480;52.370;9.748;2022-09-02T08:40:17;18.90;67.80
8888;DHT22;4480;52.370;9.748;2022-09-02T08:42:46;19.00;67.00
8888;DHT22;4480;52.370;9.748;2022-09-02T08:45:21;19.20;66.70
8888;DHT22;4480;52.370;9.748;2022-09-02T08:48:00;19.30;65.30
8888;DHT22;4480;52.370;9.748;2022-09-02T08:50:30;19.30;64.20
8888;DHT22;4480;52.370;9.748;2022-09-02T08:53:02;19.40;63.50
8888;DHT22;4480;52.370;9.748;2022-09-02T08:55:37;19.40;62.90
8888;DHT22;4480;52.370;9.748;2022-09-02T08:58:04;19.50;62.40
8888;DHT22;4480;52.370;9.748;2022-09-02T09:00:38;19.60;62.00
8888;DHT22;4480;52.370;9.748;2022-09-02T09:03:16;19.70;61.40
8888;DHT22;4480;52.370;9.748;2022-09-02T09:05:53;19.90;60.80
8888;DHT22;4480;52.370;9.748;2022-09-02T09:08:32;20.00;60.10
8888;DHT22;4480;52.370;9.748;2022-09-02T09:11:09;20.10;59.60
8888;DHT22;4480;52.370;9.748;2022-09-02T09:13:55;20.30;59.20
8888;DHT22;4480;52.370;9.748;2022-09-02T09:16:39;20.40;58.30
8888;DHT22;4480;52.370;9.748;2022-09-02T09:19:11;20.50;57.80
8888;DHT22;4480;52.370;9.748;2022-09-02T09:21:39;20.60;57.60
8888;DHT22;4480;52.370;9.748;2022-09-02T09:24:13;20.70;57.20
8888;DHT22;4480;52.370;9.748;2022-09-02T09:26:44;20.90;56.20
8888;DHT22;4480;52.370;9.748;2022-09-02T09:29:12;20.90;55.40
8888;DHT22;4480;52.370;9.748;2022-09-02T09:31:43;20.90;55.00
8888;DHT22;4480;52.370;9.748;2022-09-02T09:34:13;21.00;54.60
8888;DHT22;4480;52.370;9.748;2022-09-02T09:36:46;21.10;53.80
8888;DHT22;4480;52.370;9.748;2022-09-02T09:39:19;21.20;53.20
8888;DHT22;4480;52.370;9.748;2022-09-02T09:41:48;21.30;52.80
8888;DHT22;4480;52.370;9.748;2022-09-02T09:44:40;21.40;52.20
8888;DHT22;4480;52.370;9.748;2022-09-02T09:47:15;21.60;51.60
8888;DHT22;4480;52.370;9.748;2022-09-02T09:49:45;21.70;50.90
8888;DHT22;4480;52.370;9.748;2022-09-02T09:52:22;21.70;50.20
8888;DHT22;4480;52.370;9.748;2022-09-02T09:55:12;21.80;49.90
8888;DHT22;4480;52.370;9.748;2022-09-02T09:57:40;22.00;49.30
8888;DHT22;4480;52.370;9.748;2022-09-02T10:00:20;22.00;48.90
8888;DHT22;4480;52.370;9.748;2022-09-02T10:02:50;22.10;48.60
8888;DHT22;4480;52.370;9.748;2022-09-02T10:05:29;22.20;48.00
8888;DHT22;4480;52.370;9.748;2022-09-02T10:07:58;22.20;47.40
8888;DHT22;4480;52.370;9.748;2022-09-02T10:10:28;22.20;47.10
8888;DHT22;4480;52.370;9.748;2022-09-02T10:12:58;22.30;47.10
8888;DHT22;4480;52.370;9.748;2022-09-02T10:15:36;22.30;46.80
8888;DHT22;4480;52.370;9.748;2022-09-02T10:18:18;22.40;46.20
8888;DHT22;4480;52.370;9.748;2022-09-02T10:20:54;22.50;45.90
8888;DHT22;4480;52.370;9.748;2022-09-02T10:23:40;22.60;45.50
8888;DHT22;4480;52.370;9.748;2022-09-02T10:26:17;22.60;45.30
8888;DHT22;4480;52.370;9.748;2022-09-02T10:29:10;22.60;44.90
8888;DHT22;4480;52.370;9.748;2022-09-02T10:31:50;22.70;44.90
8888;DHT22;4480;52.370;9.748;2022-09-02T10:34:29;22.90;44.70
8888;DHT22;4480;52.370;9.748;2022-09-02T10:37:11;23.00;44.10
8888;DHT22;4480;52.370;9.748;2022-09-02T10:39:57;23.20;43.70
8888;DHT22;4480;52.370;9.748;2022-09-02T10:42:34;23.30;43.00
8888;DHT22;4480;52.370;9.748;2022-09-02T10:45:12;23.30;42.40
8888;DHT22;4480;52.370;9.748;2022-09-02T10:47:47;23.30;42.10
8888;DHT22;4480;52.370;9.748;2022-09-02T10:50:20;23.30;42.00
8888;DHT22;4480;52.370;9.748;2022-09-02T10:53:04;23.40;41.70
8888;DHT22;4480;52.370;9.748;2022-09-02T10:55:42;23.40;41.60
8888;DHT22;4480;52.370;9.748;2022-09-02T10:58:16;23.40;41.60
8888;DHT22;4480;52.370;9.748;2022-09-02T11:00:49;23.60;41.70
8888;DHT22;4480;52.370;9.748;2022-09-02T11:03:20;23.70;41.50
8888;DHT22;4480;52.370;9.748;2022-09-02T11:05:53;23.80;41.00
8888;DHT22;4480;52.370;9.748;2022-09-02T11:08:24;23.80;40.80
8888;DHT22;4480;52.370;9.748;2022-09-02T11:11:00;23.80;40.80
8888;DHT22;4480;52.370;9.748;2022-09-02T11:13:36;23.80;40.50
8888;DHT22;4480;52.370;9.748;2022-09-02T11:16:09;23.80;40.40
8888;DHT22;4480;52.370;9.748;2022-09-02T11:18:44;23.90;40.20
8888;DHT22;4480;52.370;9.748;2022-09-02T11:21:25;23.90;39.80
8888;DHT22;4480;52.370;9.748;2022-09-02T11:23:59;24.00;40.00
8888;DHT22;4480;52.370;9.748;2022-09-02T11:26:32;24.10;39.90
8888;DHT22;4480;52.370;9.748;2022-09-02T11:29:08;24.10;39.70
8888;DHT22;4480;52.370;9.748;2022-09-02T11:31:41;24.20;39.80
8888;DHT22;4480;52.370;9.748;2022-09-02T11:34:18;24.20;39.60
8888;DHT22;4480;52.370;9.748;2022-09-02T11:36:48;24.40;39.40
8888;DHT22;4480;52.370;9.748;2022-09-02T11:39:20;24.50;39.10
8888;DHT22;4480;52.370;9.748;2022-09-02T11:42:03;24.50;38.60
8888;DHT22;4480;52.370;9.748;2022-09-02T11:51:08;24.50;39.10
8888;DHT22;4480;52.370;9.748;2022-09-02T11:53:44;24.60;38.40
8888;DHT22;4480;52.370;9.748;2022-09-02T11:56:15;24.70;38.20
8888;DHT22;4480;52.370;9.748;2022-09-02T11:58:45;24.70;38.00
8888;DHT22;4480;52.370;9.748;2022-09-02T12:01:25;24.70;37.70
8888;DHT22;4480;52.370;9.748;2022-09-02T12:03:58;24.60;37.40
8888;DHT22;4480;52.370;9.748;2022-09-02T12:06:26;24.50;37.40
8888;DHT22;4480;52.370;9.748;2022-09-02T12:09:02;24.60;37.30
8888;DHT22;4480;52.370;9.748;2022-09-02T12:21:07;25.00;36.70
8888;DHT22;4480;52.370;9.748;2022-09-02T12:24:04;25.00;36.70
8888;DHT22;4480;52.370;9.748;2022-09-02T12:27:04;25.00;36.50
8888;DHT22;4480;52.370;9.748;2022-09-02T12:29:33;25.00;36.60
8888;DHT22;4480;52.370;9.748;2022-09-02T12:32:02;25.00;36.50
8888;DHT22;4480;52.370;9.748;2022-09-02T12:34:54;25.00;36.50
8888;DHT22;4480;52.370;9.748;2022-09-02T12:37:50;25.00;36.30
8888;DHT22;4480;52.370;9.748;2022-09-02T12:40:35;25.00;36.60
8888;DHT22;4480;52.370;9.748;2022-09-02T12:43:13;25.10;36.60
8888;DHT22;4480;52.370;9.748;2022-09-02T12:45:43;25.20;36.60
8888;DHT22;4480;52.370;9.748;2022-09-02T12:48:15;25.30;36.70
8888;DHT22;4480;52.370;9.748;2022-09-02T12:50:54;25.20;36.40
8888;DHT22;4480;52.370;9.748;2022-09-02T12:53:37;25.10;36.50
8888;DHT22;4480;52.370;9.748;2022-09-02T12:56:21;24.90;36.70
8888;DHT22;4480;52.370;9.748;2022-09-02T12:58:51;24.60;37.00
8888;DHT22;4480;52.370;9.748;2022-09-02T13:01:26;24.50;37.10
8888;DHT22;4480;52.370;9.748;2022-09-02T13:04:18;24.40;37.30
8888;DHT22;4480;52.370;9.748;2022-09-02T13:07:09;24.30;37.40
8888;DHT22;4480;52.370;9.748;2022-09-02T13:10:09;24.30;37.70
8888;DHT22;4480;52.370;9.748;2022-09-02T13:12:58;24.40;37.70
8888;DHT22;4480;52.370;9.748;2022-09-02T13:15:39;24.60;37.40
8888;DHT22;4480;52.370;9.748;2022-09-02T13:18:36;24.70;37.00
8888;DHT22;4480;52.370;9.748;2022-09-02T13:27:33;24.60;37.20
8888;DHT22;4480;52.370;9.748;2022-09-02T13:30:10;24.50;37.20
8888;DHT22;4480;52.370;9.748;2022-09-02T13:32:39;24.40;37.30
8888;DHT22;4480;52.370;9.748;2022-09-02T13:35:08;24.40;37.40
8888;DHT22;4480;52.370;9.748;2022-09-02T13:37:43;24.40;37.30
8888;DHT22;4480;52.370;9.748;2022-09-02T13:40:17;24.40;37.30
8888;DHT22;4480;52.370;9.748;2022-09-02T13:42:47;24.60;37.20
8888;DHT22;4480;52.370;9.748;2022-09-02T13:45:18;24.70;36.90
8888;DHT22;4480;52.370;9.748;2022-09-02T13:47:47;24.90;36.50
8888;DHT22;4480;52.370;9.748;2022-09-02T13:50:17;24.90;36.30
8888;DHT22;4480;52.370;9.748;2022-09-02T13:52:47;24.80;36.40
8888;DHT22;4480;52.370;9.748;2022-09-02T13:55:16;24.70;36.30
8888;DHT22;4480;52.370;9.748;2022-09-02T13:57:47;24.70;36.40
8888;DHT22;4480;52.370;9.748;2022-09-02T14:00:27;24.70;36.40
8888;DHT22;4480;52.370;9.748;2022-09-02T14:02:57;24.80;36.10
8888;DHT22;4480;52.370;9.748;2022-09-02T14:05:25;25.00;36.20
8888;DHT22;4480;52.370;9.748;2022-09-02T14:07:56;25.10;35.50
8888;DHT22;4480;52.370;9.748;2022-09-02T14:10:26;25.00;35.30
8888;DHT22;4480;52.370;9.748;2022-09-02T14:12:54;25.00;35.60
8888;DHT22;4480;52.370;9.748;2022-09-02T14:15:25;24.90;35.50
8888;DHT22;4480;52.370;9.748;2022-09-02T14:18:09;24.80;35.60
8888;DHT22;4480;52.370;9.748;2022-09-02T14:20:38;24.70;35.50
8888;DHT22;4480;52.370;9.748;2022-09-02T14:23:12;24.70;35.50
8888;DHT22;4480;52.370;9.748;2022-09-02T14:25:50;24.70;35.40
8888;DHT22;4480;52.370;9.748;2022-09-02T14:28:19;24.70;35.20
8888;DHT22;4480;52.370;9.748;2022-09-02T14:30:59;24.70;35.20
8888;DHT22;4480;52.370;9.748;2022-09-02T14:33:38;24.70;35.10
8888;DHT22;4480;52.370;9.748;2022-09-02T14:36:08;24.80;35.10
8888;DHT22;4480;52.370;9.748;2022-09-02T14:38:38;24.90;35.00
8888;DHT22;4480;52.370;9.748;2022-09-02T14:41:19;24.90;35.00
8888;DHT22;4480;52.370;9.748;2022-09-02T14:43:49;25.00;34.90
8888;DHT22;4480;52.370;9.748;2022-09-02T14:46:27;25.00;34.70
8888;DHT22;4480;52.370;9.748;2022-09-02T14:48:58;25.00;34.50
8888;DHT22;4480;52.370;9.748;2022-09-02T14:51:35;25.00;34.50
8888;DHT22;4480;52.370;9.748;2022-09-02T14:54:04;24.90;34.40
8888;DHT22;4480;52.370;9.748;2022-09-02T14:56:46;24.90;34.40
8888;DHT22;4480;52.370;9.748;2022-09-02T14:59:13;24.90;34.30
8888;DHT22;4480;52.370;9.748;2022-09-02T15:01:43;24.90;34.30
8888;DHT22;4480;52.370;9.748;2022-09-02T15:04:13;24.90;34.30
8888;DHT22;4480;52.370;9.748;2022-09-02T15:06:40;25.00;34.40
8888;DHT22;4480;52.370;9.748;2022-09-02T15:09:07;24.90;34.40
8888;DHT22;4480;52.370;9.748;2022-09-02T15:11:36;24.80;34.40
8888;DHT22;4480;52.370;9.748;2022-09-02T15:14:04;24.70;34.60
8888;DHT22;4480;52.370;9.748;2022-09-02T15:16:31;24.60;34.70
8888;DHT22;4480;52.370;9.748;2022-09-02T15:19:00;24.50;34.80
8888;DHT22;4480;52.370;9.748;2022-09-02T15:21:27;24.30;34.90
8888;DHT22;4480;52.370;9.748;2022-09-02T15:23:54;24.20;35.00
8888;DHT22;4480;52.370;9.748;2022-09-02T15:26:22;24.20;35.10
8888;DHT22;4480;52.370;9.748;2022-09-02T15:28:49;24.10;35.10
8888;DHT22;4480;52.370;9.748;2022-09-02T15:31:17;24.10;35.30
8888;DHT22;4480;52.370;9.748;2022-09-02T15:33:49;24.10;35.40
8888;DHT22;4480;52.370;9.748;2022-09-02T15:36:21;24.20;35.40
8888;DHT22;4480;52.370;9.748;2022-09-02T15:38:50;24.20;35.40
8888;DHT22;4480;52.370;9.748;2022-09-02T15:41:19;24.20;35.40
8888;DHT22;4480;52.370;9.748;2022-09-02T15:43:47;24.20;35.40
8888;DHT22;4480;52.370;9.748;2022-09-02T15:46:20;24.20;35.50
8888;DHT22;4480;52.370;9.748;2022-09-02T15:48:48;24.10;35.50
8888;DHT22;4480;52.370;9.748;2022-09-02T15:51:17;24.10;35.50
8888;DHT22;4480;52.370;9.748;2022-09-02T15:53:45;24.10;35.50
8888;DHT22;4480;52.370;9.748;2022-09-02T15:56:18;24.10;35.60
8888;DHT22;4480;52.370;9.748;2022-09-02T15:58:45;24.10;35.40
8888;DHT22;4480;52.370;9.748;2022-09-02T16:01:13;24.10;35.30
8888;DHT22;4480;52.370;9.748;2022-09-02T16:03:41;24.00;35.00
8888;DHT22;4480;52.370;9.748;2022-09-02T16:06:08;23.90;35.00
8888;DHT22;4480;52.370;9.748;2022-09-02T16:08:35;23.90;35.00
8888;DHT22;4480;52.370;9.748;2022-09-02T16:11:06;23.80;35.20
8888;DHT22;4480;52.370;9.748;2022-09-02T16:13:34;23.80;35.50
8888;DHT22;4480;52.370;9.748;2022-09-02T16:16:02;23.70;35.60
8888;DHT22;4480;52.370;9.748;2022-09-02T16:18:30;23.70;35.70
8888;DHT22;4480;52.370;9.748;2022-09-02T16:20:58;23.60;35.60
8888;DHT22;4480;52.370;9.748;2022-09-02T16:23:25;23.60;36.40
8888;DHT22;4480;52.370;9.748;2022-09-02T16:26:07;23.50;35.80
8888;DHT22;4480;52.370;9.748;2022-09-02T16:28:36;23.40;35.90
8888;DHT22;4480;52.370;9.748;2022-09-02T16:31:05;23.40;36.00
8888;DHT22;4480;52.370;9.748;2022-09-02T16:33:32;23.40;35.90
8888;DHT22;4480;52.370;9.748;2022-09-02T16:36:00;23.50;35.80
8888;DHT22;4480;52.370;9.748;2022-09-02T16:38:27;23.50;35.80
8888;DHT22;4480;52.370;9.748;2022-09-02T16:40:55;23.50;35.90
8888;DHT22;4480;52.370;9.748;2022-09-02T16:43:25;23.40;35.90
8888;DHT22;4480;52.370;9.748;2022-09-02T16:45:53;23.40;36.00
8888;DHT22;4480;52.370;9.748;2022-09-02T16:48:21;23.50;36.00
8888;DHT22;4480;52.370;9.748;2022-09-02T16:50:49;23.80;35.70
8888;DHT22;4480;52.370;9.748;2022-09-02T16:53:17;24.30;35.10
8888;DHT22;4480;52.370;9.748;2022-09-02T16:55:46;24.90;34.30
8888;DHT22;4480;52.370;9.748;2022-09-02T16:58:13;25.40;33.70
8888;DHT22;4480;52.370;9.748;2022-09-02T17:00:42;25.70;33.10
8888;DHT22;4480;52.370;9.748;2022-09-02T17:03:10;25.90;32.80
8888;DHT22;4480;52.370;9.748;2022-09-02T17:05:39;25.90;32.60
8888;DHT22;4480;52.370;9.748;2022-09-02T17:08:07;25.90;32.60
8888;DHT22;4480;52.370;9.748;2022-09-02T17:10:35;25.80;32.70
8888;DHT22;4480;52.370;9.748;2022-09-02T17:13:02;25.70;32.80
8888;DHT22;4480;52.370;9.748;2022-09-02T17:15:29;25.50;33.00
8888;DHT22;4480;52.370;9.748;2022-09-02T17:17:58;25.40;33.20
8888;DHT22;4480;52.370;9.748;2022-09-02T17:20:26;25.40;33.20
8888;DHT22;4480;52.370;9.748;2022-09-02T17:22:53;25.30;33.20
8888;DHT22;4480;52.370;9.748;2022-09-02T17:25:21;25.30;33.30
8888;DHT22;4480;52.370;9.748;2022-09-02T17:27:48;25.30;33.20
8888;DHT22;4480;52.370;9.748;2022-09-02T17:30:16;25.20;33.20
8888;DHT22;4480;52.370;9.748;2022-09-02T17:32:43;24.80;33.60
8888;DHT22;4480;52.370;9.748;2022-09-02T17:35:12;24.40;34.00
8888;DHT22;4480;52.370;9.748;2022-09-02T17:37:39;24.20;34.30
8888;DHT22;4480;52.370;9.748;2022-09-02T17:40:08;23.90;34.60
8888;DHT22;4480;52.370;9.748;2022-09-02T17:42:57;23.60;35.00
8888;DHT22;4480;52.370;9.748;2022-09-02T17:45:24;23.10;35.40
8888;DHT22;4480;52.370;9.748;2022-09-02T17:47:51;22.60;35.90
8888;DHT22;4480;52.370;9.748;2022-09-02T17:50:20;22.30;36.60
8888;DHT22;4480;52.370;9.748;2022-09-02T17:52:47;22.00;37.00
8888;DHT22;4480;52.370;9.748;2022-09-02T17:55:14;21.70;37.40
8888;DHT22;4480;52.370;9.748;2022-09-02T17:57:56;21.60;37.80
8888;DHT22;4480;52.370;9.748;2022-09-02T18:00:27;21.40;38.00
8888;DHT22;4480;52.370;9.748;2022-09-02T18:03:15;21.20;38.30
8888;DHT22;4480;52.370;9.748;2022-09-02T18:06:04;21.10;38.60
8888;DHT22;4480;52.370;9.748;2022-09-02T18:08:37;20.90;38.80
8888;DHT22;4480;52.370;9.748;2022-09-02T18:11:05;20.80;39.00
8888;DHT22;4480;52.370;9.748;2022-09-02T18:13:48;20.70;39.20
8888;DHT22;4480;52.370;9.748;2022-09-02T18:16:39;20.60;39.40
8888;DHT22;4480;52.370;9.748;2022-09-02T18:19:24;20.50;39.70
8888;DHT22;4480;52.370;9.748;2022-09-02T18:22:05;20.40;39.80
8888;DHT22;4480;52.370;9.748;2022-09-02T18:24:47;20.30;40.00
8888;DHT22;4480;52.370;9.748;2022-09-02T18:27:22;20.20;40.20
8888;DHT22;4480;52.370;9.748;2022-09-02T18:29:59;20.10;40.50
8888;DHT22;4480;52.370;9.748;2022-09-02T18:32:45;20.00;40.70
8888;DHT22;4480;52.370;9.748;2022-09-02T18:35:26;19.90;41.00
8888;DHT22;4480;52.370;9.748;2022-09-02T18:38:05;19.80;41.20
8888;DHT22;4480;52.370;9.748;2022-09-02T18:40:40;19.80;41.50
8888;DHT22;4480;52.370;9.748;2022-09-02T18:43:15;19.70;41.70
8888;DHT22;4480;52.370;9.748;2022-09-02T18:45:48;19.60;41.90
8888;DHT22;4480;52.370;9.748;2022-09-02T18:48:18;19.60;42.10
8888;DHT22;4480;52.370;9.748;2022-09-02T18:50:49;19.50;42.30
8888;DHT22;4480;52.370;9.748;2022-09-02T18:53:22;19.40;42.50
8888;DHT22;4480;52.370;9.748;2022-09-02T18:55:51;19.40;42.70
8888;DHT22;4480;52.370;9.748;2022-09-02T18:58:27;19.30;42.70
8888;DHT22;4480;52.370;9.748;2022-09-02T19:01:02;19.30;43.60
8888;DHT22;4480;52.370;9.748;2022-09-02T19:03:33;19.20;43.10
8888;DHT22;4480;52.370;9.748;2022-09-02T19:06:04;19.20;43.20
8888;DHT22;4480;52.370;9.748;2022-09-02T19:11:05;19.10;43.40
8888;DHT22;4480;52.370;9.748;2022-09-02T19:13:42;19.00;43.40
8888;DHT22;4480;52.370;9.748;2022-09-02T19:16:11;19.00;43.60
8888;DHT22;4480;52.370;9.748;2022-09-02T19:18:38;18.90;43.60
8888;DHT22;4480;52.370;9.748;2022-09-02T19:21:06;19.00;43.70
8888;DHT22;4480;52.370;9.748;2022-09-02T19:23:34;18.90;43.80
8888;DHT22;4480;52.370;9.748;2022-09-02T19:26:03;18.90;43.90
8888;DHT22;4480;52.370;9.748;2022-09-02T19:28:31;18.90;44.10
8888;DHT22;4480;52.370;9.748;2022-09-02T19:31:01;18.80;44.10
8888;DHT22;4480;52.370;9.748;2022-09-02T19:33:31;18.80;44.10
8888;DHT22;4480;52.370;9.748;2022-09-02T19:36:00;18.80;44.30
8888;DHT22;4480;52.370;9.748;2022-09-02T19:38:27;18.80;44.30
8888;DHT22;4480;52.370;9.748;2022-09-02T19:40:54;18.70;44.30
8888;DHT22;4480;52.370;9.748;2022-09-02T19:43:23;18.70;44.30
8888;DHT22;4480;52.370;9.748;2022-09-02T19:45:51;18.70;44.30
8888;DHT22;4480;52.370;9.748;2022-09-02T19:48:18;18.70;44.40
8888;DHT22;4480;52.370;9.748;2022-09-02T19:50:46;18.70;44.50
8888;DHT22;4480;52.370;9.748;2022-09-02T19:53:19;18.70;44.60
8888;DHT22;4480;52.370;9.748;2022-09-02T19:55:47;18.60;44.60
8888;DHT22;4480;52.370;9.748;2022-09-02T19:58:16;18.50;44.70
8888;DHT22;4480;52.370;9.748;2022-09-02T20:00:45;18.50;44.90
8888;DHT22;4480;52.370;9.748;2022-09-02T20:03:13;18.40;45.00
8888;DHT22;4480;52.370;9.748;2022-09-02T20:05:40;18.40;45.20
8888;DHT22;4480;52.370;9.748;2022-09-02T20:08:08;18.30;45.30
8888;DHT22;4480;52.370;9.748;2022-09-02T20:10:35;18.30;45.50
8888;DHT22;4480;52.370;9.748;2022-09-02T20:13:03;18.20;45.70
8888;DHT22;4480;52.370;9.748;2022-09-02T20:15:30;18.20;45.90
8888;DHT22;4480;52.370;9.748;2022-09-02T20:18:08;18.10;46.00
8888;DHT22;4480;52.370;9.748;2022-09-02T20:20:37;18.00;46.20
8888;DHT22;4480;52.370;9.748;2022-09-02T20:23:08;18.00;46.40
8888;DHT22;4480;52.370;9.748;2022-09-02T20:25:47;17.90;46.60
8888;DHT22;4480;52.370;9.748;2022-09-02T20:28:22;17.90;46.90
8888;DHT22;4480;52.370;9.748;2022-09-02T20:30:56;17.80;47.00
8888;DHT22;4480;52.370;9.748;2022-09-02T20:33:36;17.80;47.30
8888;DHT22;4480;52.370;9.748;2022-09-02T20:36:14;17.70;47.40
8888;DHT22;4480;52.370;9.748;2022-09-02T20:39:32;17.60;47.70
8888;DHT22;4480;52.370;9.748;2022-09-02T20:42:14;17.50;47.90
8888;DHT22;4480;52.370;9.748;2022-09-02T20:45:00;17.50;48.20
8888;DHT22;4480;52.370;9.748;2022-09-02T20:47:45;17.40;48.40
8888;DHT22;4480;52.370;9.748;2022-09-02T20:50:34;17.30;48.50
8888;DHT22;4480;52.370;9.748;2022-09-02T20:56:02;17.20;48.90
8888;DHT22;4480;52.370;9.748;2022-09-02T20:58:35;17.20;49.20
8888;DHT22;4480;52.370;9.748;2022-09-02T21:01:08;17.10;49.30
8888;DHT22;4480;52.370;9.748;2022-09-02T21:03:46;17.10;49.40
8888;DHT22;4480;52.370;9.748;2022-09-02T21:06:16;17.10;49.50
8888;DHT22;4480;52.370;9.748;2022-09-02T21:08:57;17.00;49.70
8888;DHT22;4480;52.370;9.748;2022-09-02T21:11:31;17.00;49.70
8888;DHT22;4480;52.370;9.748;2022-09-02T21:14:06;17.00;49.90
8888;DHT22;4480;52.370;9.748;2022-09-02T21:16:36;16.90;49.90
8888;DHT22;4480;52.370;9.748;2022-09-02T21:19:09;16.90;50.10
8888;DHT22;4480;52.370;9.748;2022-09-02T21:21:46;16.90;50.20
8888;DHT22;4480;52.370;9.748;2022-09-02T21:24:19;16.80;50.30
8888;DHT22;4480;52.370;9.748;2022-09-02T21:26:50;16.80;50.40
8888;DHT22;4480;52.370;9.748;2022-09-02T21:29:24;16.80;50.50
8888;DHT22;4480;52.370;9.748;2022-09-02T21:31:56;16.70;50.60